Lake Levels Lake Levels   »   United States   »   Texas
LAKES RIVERS MARINAS NEWS HOUSES EVENTS MAPS
1,681 Lakes:
Lake Store

Lake Levels in Texas, United States

Lake Name Current
Level
Full Pool +/-
Full Pool
Reading
Date - Time
Alan Henry (TX) 2,218.07 2,224.00 -5.93 3/24/2017  9:30 PM
Amistad (TX) 1,095.79 1,117.00 -21.21 3/24/2017  11:15 PM
Amon Carter (TX) 920.49 920.00 0.49 3/24/2017  11:00 PM
Aquilla (TX) 537.72 537.50 0.22 3/24/2017  11:30 PM
Arlington (TX) 548.80 550.00 -1.20 3/24/2017  11:15 PM
Arrowhead (TX) 925.66 926.00 -0.34 3/24/2017  11:00 PM
Athens (TX) 440.45 440.00 0.45 3/24/2017  11:30 PM
Austin (TX) 492.19 492.80 -0.61 3/24/2017  11:00 PM
Bardwell (TX) 421.15 421.00 0.15 3/24/2017  11:30 PM
Belton (TX) 594.78 594.00 0.78 3/24/2017  11:00 PM
Benbrook (TX) 688.79 694.00 -5.21 3/24/2017  10:00 PM
Bob Sandlin (TX) 337.55 337.50 0.05 3/24/2017  9:38 AM
Bonham (TX) 561.94 565.00 -3.06 3/24/2017  10:00 PM
Brady Creek (TX) 1,737.37 1,743.00 -5.63 3/24/2017  11:45 PM
Bridgeport (TX) 836.12 836.00 0.12 3/24/2017  11:00 PM
Brownwood (TX) 1,424.86 1,425.00 -0.14 3/24/2017  11:30 PM
Buchanan (TX) 1,018.02 1,020.50 -2.48 3/24/2017  10:13 AM
Buffalo Creek (TX) 1,045.88 1,049.00 -3.12 3/24/2017  12:00 AM
Caddo (LA TX) 169.20 168.50 0.70 3/24/2017  8:00 AM
Canyon (TX) 909.28 909.00 0.28 3/24/2017  4:15 PM
Cedar Creek (TX) 321.90 322.00 -0.10 3/24/2017  11:45 PM
Champion Creek (TX) 2,060.27 2,083.00 -22.73 3/24/2017  9:50 AM
Cherokee (TX) 279.96 280.00 -0.04 3/24/2017  10:45 PM
Choke Canyon (TX) 200.54 220.50 -19.96 3/24/2017  7:30 AM
Cisco (TX) 1,519.88 1,520.00 -0.12 3/25/2017  12:30 AM
Coleman (TX) 1,717.27 1,718.00 -0.73 3/24/2017  11:30 PM
Coleto Creek (TX) 98.07 98.28 -0.21 3/24/2017  11:00 PM
Colorado City (TX) 2,056.85 2,070.20 -13.35 3/24/2017  9:50 AM
Conroe (TX) 201.02 201.00 0.02 3/24/2017  11:33 PM
Corpus Christi (TX) 93.31 94.00 -0.69 3/24/2017  8:56 AM
E. V. Spence (TX) 1,848.02 1,898.00 -49.98 3/24/2017  11:00 PM
Eagle Mountain (TX) 649.26 649.00 0.26 3/24/2017  11:00 PM
Falcon (TX) 271.44 301.20 -29.76 3/24/2017  11:15 PM
Fork (TX) 400.91 403.00 -2.09 3/24/2017  11:30 PM
Georgetown (TX) 791.15 791.00 0.15 3/24/2017  7:00 PM
Graham (TX) 1,074.88 1,075.00 -0.12 3/24/2017  11:00 PM
Granbury (TX) 692.68 693.00 -0.32 3/24/2017  11:30 PM
Granger (TX) 504.15 504.00 0.15 3/24/2017  7:00 PM
Grapevine (TX) 535.30 535.00 0.30 3/24/2017  11:45 PM
Hords Creek (TX) 1,897.30 1,900.00 -2.70 3/24/2017  11:30 PM
Houston (TX) 41.77 41.70 0.07 3/24/2017  11:30 PM
Hubbard Creek (TX) 1,183.01 1,183.00 0.01 3/24/2017  11:15 PM
Hubert M Moss (TX) 714.70 715.00 -0.30 3/24/2017  11:15 PM
Inks (TX) 887.00 886.90 0.10 3/24/2017  10:00 PM
Jacksonville (TX) 422.16 422.00 0.16 3/24/2017  12:00 AM
JB Thomas (TX) 2,245.86 2,258.00 -12.14 3/24/2017  9:45 PM
Jim Chapman (TX) 435.89 440.00 -4.11 3/24/2017  9:38 AM
Joe Pool (TX) 522.01 522.00 0.01 3/24/2017  11:00 PM
Kemp (TX) 1,143.98 1,144.00 -0.02 3/24/2017  11:15 PM
Kickapoo (TX) 1,043.69 1,045.00 -1.31 3/24/2017  11:00 PM
Lake O' the Pines (TX) 228.68 228.50 0.18 3/24/2017  9:38 AM
Lavon (TX) 489.93 492.00 -2.07 3/24/2017  10:00 PM
Leon (TX) 1,372.46 3/24/2017  6:45 PM
Lewisville (TX) 521.80 522.00 -0.20 3/24/2017  4:30 PM
Limestone (TX) 363.21 363.00 0.21 3/24/2017  10:45 PM
Livingston (TX) 131.13 131.00 0.13 3/24/2017  11:15 PM
Lyndon B. Johnson (TX) 824.53 825.00 -0.47 3/24/2017  10:13 AM
MacKenzie (TX) 3,025.82 3,100.00 -74.18 3/24/2017  11:30 PM
Marble Falls (TX) 736.34 737.00 -0.66 3/24/2017  10:13 AM
Martin Creek (TX) 304.61 306.00 -1.39 3/24/2017  10:30 PM
Medina (TX) 1,061.10 1,062.00 -0.90 3/24/2017  11:00 PM
Meredith (TX) 2,876.08 2,941.00 -64.92 3/24/2017  11:30 PM
Mexia (TX) 448.36 448.30 0.06 3/24/2017  10:15 PM
Millers Creek (TX) 1,334.21 1,334.00 0.21 3/24/2017  9:00 PM
Mineral Wells (TX) 863.36 863.00 0.36 3/25/2017  2:30 AM
Moss Creek (TX) 2,331.81 2,337.00 -5.19 3/24/2017  11:30 PM
Murvaul (TX) 264.77 265.50 -0.73 3/24/2017  9:38 AM
Nacogdoches (TX) 278.51 279.00 -0.49 3/24/2017  9:38 AM
Navarro Mills (TX) 424.61 424.50 0.11 3/24/2017  9:00 PM
Nocona (TX) 827.57 827.00 0.57 3/24/2017  9:00 PM
O. C. Fisher (TX) 1,874.27 1,908.00 -33.73 3/24/2017  8:00 PM
O.H. Ivie (TX) 1,518.40 1,551.50 -33.10 3/24/2017  10:15 PM
Oak Creek (TX) 1,992.01 2,000.00 -7.99 3/15/2017  12:00 AM
Palestine (TX) 345.04 345.00 0.04 3/24/2017  9:38 AM
Palo Pinto (TX) 866.12 867.00 -0.88 3/24/2017  11:15 PM
Pat Cleburne (TX) 733.60 733.60 -0.00 3/24/2017  10:00 PM
Pat Mayse (TX) 448.57 451.00 -2.43 3/24/2017  9:38 AM
Phantom Hill (TX) 1,635.93 1,635.90 0.03 3/24/2017  11:30 PM
Possum Kingdom (TX) 998.93 1,000.00 -1.07 3/24/2017  10:09 AM
Proctor (TX) 1,161.83 1,162.00 -0.17 3/24/2017  11:30 PM
Ray Hubbard (TX) 434.86 435.50 -0.64 3/24/2017  11:30 PM
Ray Roberts (TX) 632.40 632.50 -0.10 3/24/2017  11:15 PM
Red Bluff (TX) 2,824.74 2,827.13 -2.39 3/24/2017  11:15 PM
Richland Chambers (TX) 315.16 315.00 0.16 3/24/2017  10:09 AM
Sam Rayburn (TX) 162.76 164.40 -1.64 3/24/2017  11:00 PM
Somerville (TX) 238.09 238.00 0.09 3/24/2017  10:00 PM
Squaw Creek (TX) 774.16 775.00 -0.84 3/24/2017  11:00 PM
Stamford (TX) 1,416.09 1,417.00 -0.91 3/24/2017  9:30 PM
Steinhagen Reservoir (TX) 82.30 82.40 -0.10 3/24/2017  11:00 PM
Stillhouse Hollow (TX) 622.36 622.00 0.36 3/24/2017  6:00 PM
Tawakoni (TX) 434.57 437.50 -2.93 3/24/2017  11:30 PM
Texana (TX) 43.86 44.00 -0.14 3/24/2017  11:00 PM
Texoma (TX) 614.23 617.00 -2.77 3/24/2017  11:00 PM
Toledo Bend (TX LA) 169.33 172.00 -2.67 3/24/2017  11:30 PM
Travis (TX) 681.23 681.00 0.23 3/24/2017  11:00 PM
Twin Buttes (TX) 1,906.54 1,940.00 -33.46 3/15/2017  12:00 AM
Tyler (TX) 375.50 375.50 -0.00 3/24/2017  9:38 AM
Waco (TX) 462.03 462.00 0.03 3/24/2017  5:15 PM
White River (TX) 2,352.46 3/24/2017  11:15 PM
Whitney (TX) 529.88 533.00 -3.12 3/24/2017  11:15 PM
Worth (TX) 593.51 594.00 -0.49 3/24/2017  11:00 PM
Wright Patman (TX) 223.95 220.60 3.35 3/22/2017  10:26 AM


CURRENT DAILY STREAMFLOW CONDITIONS
High
90th percentile
75th - 89th percentile
25th - 74th percentile
10th - 24th percentile
10th percentile
Low
Not ranked

The colored dots on this map depict streamflow conditions as a percentile, which is computed from the period of record for the current day of the year. Only stations with at least 30 years of record are used. The gray circles indicate other stations that were not ranked in percentiles either because they have fewer than 30 years of record or because they report parameters other than streamflow. Some stations, for example, measure stage only.
U.S. Daily Streamflow Conditions



U.S. Drought Monitor